KFHU/FHU METAR and TAF weather

Enter ICAO airport designator
Station Type Date Time Source
KFHU METAR 2018/12/19 09:58 UTC NOAA

KFHU 190958Z AUTO 26009KT 10SM CLR 05/M01 A3015 RMK AO2 SLP184 T00521015 $


Station Type Date Time Source
KFHU Decoded METAR 2018/12/19 09:58 UTC NOAA

Fort Huachuca, Libby AAF Ft Huachuca, AZ, United States (KFHU) 46-98N 110-20W
Dec 19, 2018 - 04:58 AM EST / 2018.12.19 0958 UTC
Wind: from the W (260 degrees) at 10 MPH (9 KT):0
Visibility: 10 mile(s):0
Sky conditions: clear
Temperature: 41.4 F (5.2 C)
Dew Point: 29.3 F (-1.5 C)
Relative Humidity: 61%
Pressure (altimeter): 30.15 in. Hg (1020 hPa)
ob: KFHU 190958Z AUTO 26009KT 10SM CLR 05/M01 A3015 RMK AO2 SLP184 T00521015
cycle: 10

Station Type Date Time Source
KFHU TAF 2018/12/19 10:09 UTC NOAA

TAF KFHU 191005Z 1910/2016 25009KT 9999 FEW180 QNH3015INS
BECMG 1917/1918 33012KT 9999 SKC QNH3018INS
BECMG 2001/2002 VRB06KT 9999 SKC QNH3020INS TX17/1921Z TN02/1912Z


Example: see airport list